Current Conditions
Partly Cloudy
Conditions



Pressure
990.92 (hPa) - 29.26 (inHG)
Visibility

10.0 (km) - 6.2 (miles)
Temperature
3  °C
Temperature
1  °C
Dewpoint
87  %
 Humidity
Wind Speed
11  km/h
6  kts
7  mph
3.1  m/s
Wind Direction
N
45°
E
90°
135°
S
180°
225°
W
270°
315°
 240°

West South
West
Airport Data
EDDR
Saarbr├╝cken Airport
Metar :EDDR 271120Z 24006KT 210V270 9999 FEW005 SCT007 BKN025 03/01 Q0991 NOSIG
Sat 27th November 13:20 pm
Raw Metar Info
Raw METAR is the most common format in the world for the transmission of observational weather data. It is highly standardized through the International Civil Aviation Organization (ICAO), which allows it to be understood throughout most of the world.
API Info
Data Provided by
https://www.checkwx.com/weather/EDDR

Aviation Weather providing METAR, TAF, AIRMET, SIGMET and OUTLOOK Weather Reports
© Info
CSS/SVG/PHP scripts were developed by weather34.com for use in the weather34 template © 2015-2021

Guide Info provided by Metar-Wikipedia